createdAt,value
2022-11-27T00:01:13.221Z,97598.34
2022-11-27T00:03:42.305Z,97595.78
2022-11-27T00:06:15.671Z,97599.22
2022-11-27T00:08:44.850Z,97595.53
2022-11-27T00:11:15.547Z,97594.50
2022-11-27T00:13:44.303Z,97604.47
2022-11-27T00:16:13.364Z,97612.56
2022-11-27T00:18:42.252Z,97612.25
2022-11-27T00:21:14.717Z,97613.69
2022-11-27T00:23:43.744Z,97604.91
2022-11-27T00:26:12.639Z,97608.94
2022-11-27T00:28:40.928Z,97604.13
2022-11-27T00:31:14.565Z,97605.00
2022-11-27T00:33:42.969Z,97601.28
2022-11-27T00:36:13.636Z,97594.44
2022-11-27T00:38:41.944Z,97591.78
2022-11-27T00:41:11.472Z,97590.09
2022-11-27T00:43:44.604Z,97588.03
2022-11-27T00:46:14.059Z,97578.72
2022-11-27T00:48:43.142Z,97571.44
2022-11-27T00:51:20.836Z,97567.28
2022-11-27T00:53:49.150Z,97563.31
2022-11-27T00:56:18.910Z,97566.56
2022-11-27T00:58:47.561Z,97566.38
2022-11-27T01:01:18.097Z,97567.88
2022-11-27T01:03:46.433Z,97568.22
2022-11-27T01:06:16.506Z,97558.69
2022-11-27T01:08:44.847Z,97552.50
2022-11-27T01:11:15.660Z,97550.09
2022-11-27T01:13:44.641Z,97552.84
2022-11-27T01:16:15.600Z,97555.31
2022-11-27T01:18:45.142Z,97552.88
2022-11-27T01:21:14.307Z,97552.78
2022-11-27T01:23:44.016Z,97545.88
2022-11-27T01:26:13.122Z,97547.88
2022-11-27T01:28:41.635Z,97542.16
2022-11-27T01:31:13.263Z,97537.47
2022-11-27T01:33:41.570Z,97538.09
2022-11-27T01:36:11.938Z,97530.34
2022-11-27T01:38:40.191Z,97530.06
2022-11-27T01:41:15.169Z,97536.38
2022-11-27T01:43:45.900Z,97533.91
2022-11-27T01:46:32.598Z,97542.44
2022-11-27T01:49:15.331Z,97544.59
2022-11-27T01:51:47.956Z,97538.66
2022-11-27T01:54:17.569Z,97545.00
2022-11-27T01:56:50.288Z,97537.22
2022-11-27T01:59:19.446Z,97539.00
2022-11-27T02:01:47.830Z,97536.88
2022-11-27T02:04:16.430Z,97541.97
2022-11-27T02:06:44.700Z,97533.53
2022-11-27T02:09:13.092Z,97529.28
2022-11-27T02:11:52.312Z,97523.13
2022-11-27T02:14:26.685Z,97527.25
2022-11-27T02:16:59.983Z,97514.16
2022-11-27T02:19:43.901Z,97522.50
2022-11-27T02:22:26.175Z,97516.03
2022-11-27T02:25:00.556Z,97510.03
2022-11-27T02:27:48.243Z,97507.91
2022-11-27T02:30:18.709Z,97501.41
2022-11-27T02:32:51.116Z,97503.25
2022-11-27T02:35:21.698Z,97505.03
2022-11-27T02:37:50.350Z,97496.75
2022-11-27T02:40:22.990Z,97500.47
2022-11-27T02:42:54.831Z,97492.53
2022-11-27T02:45:28.197Z,97495.00
2022-11-27T02:47:57.466Z,97483.28
2022-11-27T02:50:27.214Z,97468.97
2022-11-27T02:53:00.430Z,97463.53
2022-11-27T02:55:31.836Z,97459.06
2022-11-27T02:58:01.951Z,97457.63
2022-11-27T03:00:32.343Z,97443.72
2022-11-27T03:03:03.224Z,97446.50
2022-11-27T03:05:33.973Z,97451.31
2022-11-27T03:08:05.688Z,97444.56
2022-11-27T03:10:37.292Z,97443.72
2022-11-27T03:13:05.739Z,97439.88
2022-11-27T03:15:40.333Z,97443.09
2022-11-27T03:18:13.707Z,97448.41
2022-11-27T03:20:43.200Z,97447.94
2022-11-27T03:23:11.567Z,97453.34
2022-11-27T03:25:39.791Z,97449.38
2022-11-27T03:28:09.848Z,97439.50
2022-11-27T03:30:41.457Z,97430.47
2022-11-27T03:33:09.969Z,97435.75
2022-11-27T03:35:38.504Z,97435.03
2022-11-27T03:38:06.958Z,97431.75
2022-11-27T03:40:42.813Z,97428.69
2022-11-27T03:43:15.503Z,97417.06
2022-11-27T03:45:51.657Z,97422.03
2022-11-27T03:48:24.755Z,97423.63
2022-11-27T03:51:00.414Z,97425.16
2022-11-27T03:53:35.073Z,97427.34
2022-11-27T03:56:10.421Z,97413.00
2022-11-27T03:58:41.409Z,97414.22
2022-11-27T04:01:13.652Z,97410.09
2022-11-27T04:03:41.898Z,97417.41
2022-11-27T04:06:11.746Z,97413.59
2022-11-27T04:08:40.374Z,97417.19
2022-11-27T04:11:09.039Z,97424.69
2022-11-27T04:13:37.351Z,97424.09
2022-11-27T04:16:06.205Z,97428.75
2022-11-27T04:18:35.799Z,97429.91
2022-11-27T04:21:05.102Z,97425.03
2022-11-27T04:23:33.314Z,97415.22
2022-11-27T04:26:01.593Z,97419.63
2022-11-27T04:28:30.614Z,97415.06
2022-11-27T04:30:59.029Z,97410.13
2022-11-27T04:33:27.267Z,97408.94
2022-11-27T04:35:56.951Z,97424.94
2022-11-27T04:38:25.234Z,97415.59
2022-11-27T04:40:53.830Z,97414.41
2022-11-27T04:43:22.075Z,97406.88
2022-11-27T04:45:50.483Z,97408.84
2022-11-27T04:48:18.772Z,97411.66
2022-11-27T04:50:47.168Z,97409.81
2022-11-27T04:53:16.836Z,97411.31
2022-11-27T04:55:45.060Z,97414.00
2022-11-27T04:58:13.386Z,97403.22
2022-11-27T05:00:41.763Z,97403.94
2022-11-27T05:03:10.174Z,97410.22
2022-11-27T05:05:38.505Z,97417.91
2022-11-27T05:08:06.818Z,97426.56
2022-11-27T05:10:36.387Z,97414.28
2022-11-27T05:13:04.979Z,97411.94
2022-11-27T05:15:33.373Z,97411.69
2022-11-27T05:18:01.618Z,97402.34
2022-11-27T05:20:29.826Z,97416.72
2022-11-27T05:22:58.070Z,97421.63
2022-11-27T05:25:26.326Z,97420.31
2022-11-27T05:27:55.940Z,97412.09
2022-11-27T05:30:24.157Z,97416.19
2022-11-27T05:32:52.372Z,97412.47
2022-11-27T05:35:20.645Z,97421.63
2022-11-27T05:37:48.821Z,97432.94
2022-11-27T05:40:17.236Z,97437.66
2022-11-27T05:42:45.450Z,97432.59
2022-11-27T05:45:15.031Z,97423.41
2022-11-27T05:47:43.228Z,97423.34
2022-11-27T05:50:11.691Z,97410.22
2022-11-27T05:52:39.960Z,97407.88
2022-11-27T05:55:08.911Z,97402.22
2022-11-27T05:57:37.233Z,97402.53
2022-11-27T06:00:07.459Z,97399.16
2022-11-27T06:02:37.139Z,97403.47
2022-11-27T06:05:05.977Z,97399.03
2022-11-27T06:07:34.283Z,97390.81
2022-11-27T06:10:02.555Z,97388.63
2022-11-27T06:12:32.411Z,97396.50
2022-11-27T06:15:00.678Z,97392.69
2022-11-27T06:17:28.953Z,97381.72
2022-11-27T06:19:58.526Z,97389.88
2022-11-27T06:22:26.732Z,97389.22
2022-11-27T06:24:55.029Z,97383.47
2022-11-27T06:27:23.513Z,97390.66
2022-11-27T06:29:51.743Z,97392.19
2022-11-27T06:32:20.122Z,97401.84
2022-11-27T06:34:48.385Z,97395.28
2022-11-27T06:37:18.148Z,97402.69
2022-11-27T06:39:46.367Z,97395.72
2022-11-27T06:42:14.652Z,97398.25
2022-11-27T06:44:43.009Z,97399.38
2022-11-27T06:47:11.388Z,97399.47
2022-11-27T06:49:39.725Z,97407.97
2022-11-27T06:52:08.071Z,97397.38
2022-11-27T06:54:37.822Z,97402.59
2022-11-27T06:57:06.242Z,97406.19
2022-11-27T06:59:34.563Z,97398.47
2022-11-27T07:02:02.848Z,97411.31
2022-11-27T07:04:31.134Z,97402.56
2022-11-27T07:06:59.857Z,97401.13
2022-11-27T07:09:28.101Z,97399.19
2022-11-27T07:11:57.693Z,97399.41
2022-11-27T07:14:25.965Z,97398.91
2022-11-27T07:16:54.213Z,97397.75
2022-11-27T07:19:22.570Z,97402.72
2022-11-27T07:21:50.770Z,97398.38
2022-11-27T07:24:19.034Z,97404.94
2022-11-27T07:26:47.263Z,97404.47
2022-11-27T07:29:16.859Z,97402.47
2022-11-27T07:31:45.128Z,97400.31
2022-11-27T07:34:17.089Z,97401.44
2022-11-27T07:36:48.108Z,97400.91
2022-11-27T07:39:25.205Z,97391.31
2022-11-27T07:42:23.220Z,97388.66
2022-11-27T07:44:51.700Z,97386.41
2022-11-27T07:47:19.976Z,97384.94
2022-11-27T07:49:48.173Z,97384.75
2022-11-27T07:52:16.407Z,97379.06
2022-11-27T07:54:44.587Z,97377.56
2022-11-27T07:57:12.745Z,97378.00
2022-11-27T07:59:46.989Z,97363.13
2022-11-27T08:02:17.113Z,97360.25
2022-11-27T08:04:45.521Z,97364.56
2022-11-27T08:07:13.954Z,97363.38
2022-11-27T08:09:42.303Z,97356.19
2022-11-27T08:12:10.510Z,97362.09
2022-11-27T08:14:39.038Z,97361.53
2022-11-27T08:17:07.666Z,97359.50
2022-11-27T08:19:37.341Z,97351.00
2022-11-27T08:22:07.008Z,97352.34
2022-11-27T08:24:37.429Z,97341.19
2022-11-27T08:27:05.747Z,97338.84
2022-11-27T08:29:34.192Z,97339.69
2022-11-27T08:32:02.519Z,97342.56
2022-11-27T08:34:30.865Z,97340.59
2022-11-27T08:37:00.445Z,97337.59
2022-11-27T08:39:28.644Z,97355.31
2022-11-27T08:41:56.968Z,97346.56
2022-11-27T08:44:25.233Z,97352.63
2022-11-27T08:46:53.480Z,97349.34
2022-11-27T08:49:21.740Z,97340.75
2022-11-27T08:51:49.982Z,97349.13
2022-11-27T08:54:19.570Z,97346.47
2022-11-27T08:56:47.895Z,97340.47
2022-11-27T08:59:16.122Z,97344.28
2022-11-27T09:01:44.714Z,97336.00
2022-11-27T09:04:12.994Z,97338.31
2022-11-27T09:06:42.249Z,97341.31
2022-11-27T09:09:10.624Z,97334.88
2022-11-27T09:11:40.209Z,97334.94
2022-11-27T09:14:09.690Z,97332.25
2022-11-27T09:16:38.141Z,97322.81
2022-11-27T09:19:06.369Z,97326.94
2022-11-27T09:21:34.736Z,97330.19
2022-11-27T09:24:03.263Z,97322.56
2022-11-27T09:26:31.848Z,97321.50
2022-11-27T09:29:01.588Z,97325.94
2022-11-27T09:31:29.881Z,97320.34
2022-11-27T09:33:58.955Z,97314.44
2022-11-27T09:36:27.662Z,97304.88
2022-11-27T09:38:55.929Z,97312.47
2022-11-27T09:41:41.870Z,97311.75
2022-11-27T09:44:26.898Z,97299.44
2022-11-27T09:46:56.972Z,97297.25
2022-11-27T09:49:27.621Z,97289.88
2022-11-27T09:51:56.773Z,97284.03
2022-11-27T09:54:28.131Z,97275.47
2022-11-27T09:56:57.412Z,97270.00
2022-11-27T09:59:33.946Z,97275.72
2022-11-27T10:02:02.237Z,97274.91
2022-11-27T10:04:51.005Z,97270.50
2022-11-27T10:07:28.454Z,97271.56
2022-11-27T10:10:06.673Z,97260.09
2022-11-27T10:12:41.157Z,97262.25
2022-11-27T10:15:16.425Z,97259.19
2022-11-27T10:17:48.914Z,97248.31
2022-11-27T10:20:23.656Z,97247.06
2022-11-27T10:22:57.929Z,97255.53
2022-11-27T10:25:30.550Z,97247.03
2022-11-27T10:28:05.510Z,97238.41
2022-11-27T10:30:39.354Z,97236.06
2022-11-27T10:33:14.466Z,97239.84
2022-11-27T10:35:44.735Z,97234.13
2022-11-27T10:38:16.135Z,97229.06
2022-11-27T10:40:48.110Z,97233.69
2022-11-27T10:43:19.818Z,97226.78
2022-11-27T10:45:51.637Z,97215.13
2022-11-27T10:48:20.299Z,97218.16
2022-11-27T10:50:48.554Z,97211.69
2022-11-27T10:53:27.111Z,97194.03
2022-11-27T10:56:02.652Z,97186.72
2022-11-27T10:58:35.479Z,97187.63
2022-11-27T11:01:07.396Z,97201.63
2022-11-27T11:03:36.422Z,97187.34
2022-11-27T11:06:23.181Z,97200.31
2022-11-27T11:09:02.308Z,97196.78
2022-11-27T11:11:30.621Z,97207.81
2022-11-27T11:13:59.011Z,97199.56
2022-11-27T11:16:35.137Z,97200.09
2022-11-27T11:19:06.483Z,97207.66
2022-11-27T11:21:36.579Z,97216.03
2022-11-27T11:24:07.374Z,97208.56
2022-11-27T11:26:38.869Z,97210.03
2022-11-27T11:29:08.831Z,97208.56
2022-11-27T11:31:40.442Z,97188.84
2022-11-27T11:34:18.823Z,97187.06
2022-11-27T11:36:58.275Z,97170.53
2022-11-27T11:39:28.997Z,97169.50
2022-11-27T11:41:57.465Z,97165.97
2022-11-27T11:44:32.123Z,97172.69
2022-11-27T11:47:01.749Z,97186.50
2022-11-27T11:49:31.180Z,97181.16
2022-11-27T11:52:13.275Z,97187.31
2022-11-27T11:54:50.480Z,97190.09
2022-11-27T11:58:00.067Z,97189.13
2022-11-27T12:00:38.709Z,97186.06
2022-11-27T12:03:27.527Z,97183.19
2022-11-27T12:06:05.835Z,97184.31
2022-11-27T12:08:46.922Z,97177.53
2022-11-27T12:11:16.554Z,97180.66
2022-11-27T12:13:53.802Z,97169.47
2022-11-27T12:16:30.543Z,97164.44
2022-11-27T12:19:25.138Z,97157.38
2022-11-27T12:21:58.973Z,97161.31
2022-11-27T12:24:36.052Z,97151.34
2022-11-27T12:27:15.123Z,97146.81
2022-11-27T12:29:57.719Z,97158.22
2022-11-27T12:32:34.800Z,97153.69
2022-11-27T12:35:20.242Z,97141.00
2022-11-27T12:37:57.325Z,97139.69
2022-11-27T12:40:36.817Z,97133.53
2022-11-27T12:43:13.294Z,97130.78
2022-11-27T12:45:45.058Z,97124.09
2022-11-27T12:48:16.877Z,97114.13
2022-11-27T12:50:49.374Z,97116.66
2022-11-27T12:53:24.698Z,97108.22
2022-11-27T12:56:02.480Z,97107.25
2022-11-27T12:58:33.394Z,97092.97
2022-11-27T13:01:05.752Z,97082.50
2022-11-27T13:03:41.582Z,97073.16
2022-11-27T13:06:13.372Z,97081.41
2022-11-27T13:08:52.145Z,97070.09
2022-11-27T13:11:21.927Z,97071.34
2022-11-27T13:13:53.382Z,97072.28
2022-11-27T13:16:27.292Z,97069.75
2022-11-27T13:18:59.133Z,97070.59
2022-11-27T13:21:30.699Z,97059.66
2022-11-27T13:24:01.819Z,97057.28
2022-11-27T13:26:34.570Z,97069.03
2022-11-27T13:29:05.311Z,97052.00
2022-11-27T13:31:37.608Z,97058.75
2022-11-27T13:34:08.193Z,97058.59
2022-11-27T13:36:40.264Z,97062.44
2022-11-27T13:39:22.826Z,97050.78
2022-11-27T13:42:01.229Z,97043.84
2022-11-27T13:44:30.487Z,97038.78
2022-11-27T13:47:01.682Z,97047.91
2022-11-27T13:49:32.258Z,97056.19
2022-11-27T13:52:09.346Z,97050.59
2022-11-27T13:54:37.992Z,97055.00
2022-11-27T13:57:17.847Z,97041.66
2022-11-27T13:59:56.851Z,97044.47
2022-11-27T14:02:25.809Z,97042.63
2022-11-27T14:04:56.647Z,97034.38
2022-11-27T14:07:36.793Z,97033.66
2022-11-27T14:10:11.533Z,97035.88
2022-11-27T14:12:39.870Z,97034.50
2022-11-27T14:15:10.963Z,97031.88
2022-11-27T14:17:42.124Z,97029.59
2022-11-27T14:20:26.320Z,97023.25
2022-11-27T14:23:11.839Z,97026.75
2022-11-27T14:25:40.888Z,97023.91
2022-11-27T14:28:15.715Z,97019.88
2022-11-27T14:30:48.551Z,97021.47
2022-11-27T14:33:21.417Z,97021.50
2022-11-27T14:35:50.667Z,97020.41
2022-11-27T14:38:20.371Z,97011.75
2022-11-27T14:40:48.955Z,97008.94
2022-11-27T14:43:18.735Z,97002.25
2022-11-27T14:45:48.766Z,97004.50
2022-11-27T14:48:21.123Z,97011.25
2022-11-27T14:50:50.289Z,97012.44
2022-11-27T14:53:21.814Z,97006.31
2022-11-27T14:55:51.162Z,97010.56
2022-11-27T14:58:21.471Z,97010.16
2022-11-27T15:00:54.400Z,97008.19
2022-11-27T15:03:22.769Z,97005.16
2022-11-27T15:05:56.520Z,96992.59
2022-11-27T15:08:26.466Z,96995.88
2022-11-27T15:10:56.351Z,96986.25
2022-11-27T15:13:26.354Z,96994.47
2022-11-27T15:15:57.696Z,96979.50
2022-11-27T15:18:26.411Z,96988.75
2022-11-27T15:20:55.888Z,96990.97
2022-11-27T15:23:27.953Z,96992.16
2022-11-27T15:26:14.296Z,96980.53
2022-11-27T15:28:50.681Z,96981.47
2022-11-27T15:31:25.344Z,96975.22
2022-11-27T15:33:58.058Z,96966.41
2022-11-27T15:36:26.572Z,96954.09
2022-11-27T15:39:17.019Z,96962.09
2022-11-27T15:41:55.643Z,96961.34
2022-11-27T15:44:24.770Z,96965.94
2022-11-27T15:46:54.171Z,96962.16
2022-11-27T15:49:23.406Z,96949.03
2022-11-27T15:51:51.843Z,96931.38
2022-11-27T15:54:21.443Z,96932.66
2022-11-27T15:56:49.932Z,96930.72
2022-11-27T15:59:20.510Z,96932.25
2022-11-27T16:01:49.589Z,96929.25
2022-11-27T16:04:18.074Z,96914.84
2022-11-27T16:06:46.323Z,96917.28
2022-11-27T16:09:14.552Z,96915.41
2022-11-27T16:11:44.329Z,96911.44
2022-11-27T16:14:12.645Z,96913.84
2022-11-27T16:16:41.230Z,96913.72
2022-11-27T16:19:12.127Z,96912.09
2022-11-27T16:21:40.565Z,96911.56
2022-11-27T16:24:10.377Z,96912.59
2022-11-27T16:26:38.943Z,96916.91
2022-11-27T16:29:09.557Z,96926.28
2022-11-27T16:31:37.659Z,96915.16
2022-11-27T16:34:06.613Z,96920.41
2022-11-27T16:36:34.915Z,96909.97
2022-11-27T16:39:03.188Z,96899.44
2022-11-27T16:41:31.466Z,96890.91
2022-11-27T16:43:59.706Z,96896.81
2022-11-27T16:46:30.674Z,96891.88
2022-11-27T16:49:00.757Z,96879.63
2022-11-27T16:51:31.296Z,96873.69
2022-11-27T16:54:01.268Z,96867.88
2022-11-27T16:56:30.751Z,96844.97
2022-11-27T16:59:03.067Z,96851.81
2022-11-27T17:01:36.204Z,96848.06
2022-11-27T17:04:07.078Z,96838.44
2022-11-27T17:06:36.517Z,96844.47
2022-11-27T17:09:06.846Z,96835.44
2022-11-27T17:11:36.696Z,96829.97
2022-11-27T17:14:07.777Z,96831.03
2022-11-27T17:16:39.520Z,96829.41
2022-11-27T17:19:08.005Z,96832.22
2022-11-27T17:21:36.589Z,96834.13
2022-11-27T17:24:11.642Z,96823.56
2022-11-27T17:26:43.520Z,96829.44
2022-11-27T17:29:12.080Z,96828.84
2022-11-27T17:31:41.902Z,96815.66
2022-11-27T17:34:12.556Z,96820.91
2022-11-27T17:36:42.095Z,96815.94
2022-11-27T17:39:11.547Z,96807.56
2022-11-27T17:41:40.895Z,96805.56
2022-11-27T17:44:09.570Z,96796.97
2022-11-27T17:46:39.901Z,96788.34
2022-11-27T17:49:09.593Z,96785.06
2022-11-27T17:51:38.550Z,96772.59
2022-11-27T17:54:06.967Z,96771.69
2022-11-27T17:56:35.921Z,96774.41
2022-11-27T17:59:04.703Z,96771.81
2022-11-27T18:01:34.624Z,96775.78
2022-11-27T18:04:04.200Z,96771.09
2022-11-27T18:06:36.150Z,96768.06
2022-11-27T18:09:04.977Z,96770.63
2022-11-27T18:11:34.234Z,96760.13
2022-11-27T18:14:03.115Z,96764.69
2022-11-27T18:16:33.545Z,96758.34
2022-11-27T18:19:03.618Z,96760.41
2022-11-27T18:21:33.682Z,96754.63
2022-11-27T18:29:41.239Z,96742.66
2022-11-27T18:32:09.940Z,96732.31
2022-11-27T18:34:38.465Z,96732.94
2022-11-27T18:37:08.440Z,96736.41
2022-11-27T18:39:37.885Z,96735.31
2022-11-27T18:42:06.876Z,96729.03
2022-11-27T18:44:41.130Z,96731.81
2022-11-27T18:47:12.504Z,96724.44
2022-11-27T18:49:41.277Z,96719.81
2022-11-27T18:52:11.552Z,96722.53
2022-11-27T18:54:39.817Z,96716.81
2022-11-27T18:57:08.069Z,96713.22
2022-11-27T18:59:36.637Z,96717.78
2022-11-27T19:02:05.463Z,96710.97
2022-11-27T19:04:36.283Z,96720.56
2022-11-27T19:07:04.458Z,96717.28
2022-11-27T19:09:34.026Z,96717.06
2022-11-27T19:12:02.354Z,96700.38
2022-11-27T19:14:32.004Z,96703.97
2022-11-27T19:17:00.268Z,96695.88
2022-11-27T19:22:17.192Z,96694.88
2022-11-27T19:24:47.048Z,96693.81
2022-11-27T19:27:15.345Z,96695.88
2022-11-27T19:29:43.728Z,96696.69
2022-11-27T19:32:12.219Z,96697.28
2022-11-27T19:34:40.983Z,96696.34
2022-11-27T19:37:09.429Z,96691.41
2022-11-27T19:39:37.756Z,96690.69
2022-11-27T19:42:07.436Z,96684.16
2022-11-27T19:44:36.004Z,96686.19
2022-11-27T19:47:04.340Z,96682.13
2022-11-27T19:49:32.591Z,96677.34
2022-11-27T19:52:01.162Z,96678.09
2022-11-27T19:54:29.476Z,96682.75
2022-11-27T19:56:57.751Z,96674.59
2022-11-27T19:59:27.642Z,96657.78
2022-11-27T20:01:55.952Z,96655.31
2022-11-27T20:04:24.321Z,96640.66
2022-11-27T20:06:53.492Z,96641.97
2022-11-27T20:09:21.774Z,96634.53
2022-11-27T20:11:50.024Z,96619.22
2022-11-27T20:14:19.491Z,96619.19
2022-11-27T20:16:49.187Z,96607.94
2022-11-27T20:19:17.606Z,96607.22
2022-11-27T20:21:45.980Z,96603.59
2022-11-27T20:24:14.446Z,96604.81
2022-11-27T20:26:43.213Z,96599.44
2022-11-27T20:29:12.402Z,96601.88
2022-11-27T20:31:42.058Z,96599.88
2022-11-27T20:34:16.247Z,96604.25
2022-11-27T20:36:44.457Z,96598.06
2022-11-27T20:39:17.664Z,96600.97
2022-11-27T20:41:50.388Z,96598.16
2022-11-27T20:44:18.673Z,96600.31
2022-11-27T20:46:46.944Z,96589.34
2022-11-27T20:49:17.278Z,96584.44
2022-11-27T20:51:46.641Z,96577.88
2022-11-27T20:54:14.866Z,96578.50
2022-11-27T20:56:45.567Z,96572.34
2022-11-27T20:59:14.165Z,96560.97
2022-11-27T21:01:42.584Z,96552.72
2022-11-27T21:04:21.119Z,96570.63
2022-11-27T21:06:49.667Z,96556.91
2022-11-27T21:09:18.181Z,96555.06
2022-11-27T21:11:47.394Z,96547.84
2022-11-27T21:14:16.750Z,96557.75
2022-11-27T21:16:48.505Z,96537.13
2022-11-27T21:19:18.834Z,96541.06
2022-11-27T21:21:48.570Z,96525.53
2022-11-27T21:24:16.856Z,96527.19
2022-11-27T21:26:45.590Z,96518.13
2022-11-27T21:29:14.335Z,96516.16
2022-11-27T21:31:46.848Z,96518.47
2022-11-27T21:34:16.160Z,96515.94
2022-11-27T21:36:44.389Z,96518.59
2022-11-27T21:39:20.000Z,96515.81
2022-11-27T21:41:49.502Z,96506.25
2022-11-27T21:44:18.128Z,96506.63
2022-11-27T21:46:46.735Z,96511.22
2022-11-27T21:49:16.658Z,96512.41
2022-11-27T21:51:45.106Z,96512.16
2022-11-27T21:54:15.848Z,96513.31
2022-11-27T21:56:44.165Z,96510.56
2022-11-27T21:59:14.121Z,96502.41
2022-11-27T22:01:42.479Z,96493.25
2022-11-27T22:04:10.779Z,96500.63
2022-11-27T22:06:40.629Z,96507.78
2022-11-27T22:09:15.080Z,96501.19
2022-11-27T22:11:45.698Z,96502.66
2022-11-27T22:14:15.742Z,96493.03
2022-11-27T22:16:46.633Z,96489.31
2022-11-27T22:19:15.529Z,96494.69
2022-11-27T22:21:44.518Z,96492.72
2022-11-27T22:24:18.313Z,96494.06
2022-11-27T22:26:49.207Z,96486.75
2022-11-27T22:29:17.454Z,96479.06
2022-11-27T22:31:45.931Z,96485.28
2022-11-27T22:34:14.193Z,96471.00
2022-11-27T22:36:42.520Z,96471.72
2022-11-27T22:39:11.416Z,96470.44
2022-11-27T22:41:41.050Z,96459.03
2022-11-27T22:44:12.818Z,96457.63
2022-11-27T22:46:42.426Z,96458.16
2022-11-27T22:49:12.962Z,96459.31
2022-11-27T22:51:41.427Z,96453.78
2022-11-27T22:54:12.233Z,96450.84
2022-11-27T22:56:40.502Z,96443.75
2022-11-27T23:01:59.846Z,96447.94
2022-11-27T23:04:28.369Z,96441.94
2022-11-27T23:06:56.697Z,96438.13
2022-11-27T23:09:25.165Z,96423.44
2022-11-27T23:11:53.759Z,96428.06
2022-11-27T23:14:23.517Z,96427.94
2022-11-27T23:16:51.873Z,96429.50
2022-11-27T23:19:21.089Z,96425.84
2022-11-27T23:21:49.350Z,96430.59
2022-11-27T23:24:17.628Z,96426.91
2022-11-27T23:26:46.733Z,96425.72
2022-11-27T23:29:15.148Z,96413.66
2022-11-27T23:31:44.820Z,96408.06
2022-11-27T23:34:15.954Z,96403.03
2022-11-27T23:36:44.410Z,96404.53
2022-11-27T23:39:13.892Z,96388.50
2022-11-27T23:41:42.660Z,96389.63
2022-11-27T23:44:10.938Z,96385.97
2022-11-27T23:46:39.162Z,96387.47
2022-11-27T23:49:08.947Z,96383.59
2022-11-27T23:51:37.498Z,96381.91
2022-11-27T23:54:09.183Z,96376.66
2022-11-27T23:56:38.271Z,96377.91
2022-11-27T23:59:06.829Z,96376.00
